• Join FlightAware (Why Join?)
  • Login
  • US Flag 
06:04AM EDT


 

Airport Tracker/Info


-or-


 

Live Flight TrackerFlight Track Log ✈ N770NC ✈ 16.06.2013 ✈ KATL - KHSV

Flight Track Log - Related Links

Times and Time Zones

All times are in EDT time to prevent confusion due to time zone crossing. See the N770NC flight status page for this flight to view local times or setup timezone preferences in your user account.

Time Position Orientation Groundspeed Altitude Reporting Facility
EDT Latitude Longitude Course Direction KTS MPH feet Rate Location/Type
12:53PM 33.6558 -84.4731 292° West 416 479 24,000  Level Atlanta Center
12:54PM 33.6667 -84.5000 296° West 230 265 3,000 -14,760 Descending Atlanta TRACON
12:55PM 33.6833 -84.5667 287° West 259 298 5,600 2,700 Climbing Atlanta TRACON
12:56PM 33.6830 -84.8799 277° West  Level FlightAware Approximate
12:56PM 33.7000 -84.6500 284° West 270 311 8,200  Level Atlanta TRACON
12:57PM 33.6973 -84.9808 280° West  Level FlightAware Approximate
12:57PM 33.7189 -84.8131 278° West 286 329 11,100  Level Atlanta Center
12:58PM 33.7133 -85.0930 280° West  Level FlightAware Approximate
12:58PM 33.7286 -84.9231 276° West 322 371 13,400  Level Atlanta Center
12:59PM 33.7445 -85.2002 292° West  Level FlightAware Approximate
12:59PM 33.7422 -85.0331 278° West 334 384 15,500  Level Atlanta Center
01:00PM 33.7600 -85.1508 280° West 346 398 17,800 1,980 Climbing Atlanta Center
01:01PM 33.7881 -85.2761 285° West 352 405 19,500 1,680 Climbing Atlanta Center
01:02PM 33.8139 -85.3914 285° West 364 419 21,200 1,200 Climbing Atlanta Center
01:03PM 33.8458 -85.5169 287° West 369 425 21,900 360 Climbing Atlanta Center
01:04PM 33.8736 -85.6450 285° West 385 443 22,000  Climbing Atlanta Center
01:05PM 33.9072 -85.7708 288° West 392 451 22,000  Level Atlanta Center
01:06PM 33.9600 -85.8772 301° West 372 428 22,000 -2,100 Level Atlanta Center
01:09PM 34.1717 -86.0669 323° Northwest 393 452 15,000 -2,940 Descending Memphis Center
01:10PM 34.2578 -86.1456 323° Northwest 393 452 12,100 -1,920 Descending Memphis Center
01:11PM 34.3369 -86.2094 326° Northwest 371 427 11,200 -600 Descending Memphis Center
01:12PM 34.4144 -86.2736 326° Northwest 347 399 11,000 -660 Descending Memphis Center
01:13PM 34.4850 -86.3333 325° Northwest 326 375 9,900 -1,440 Descending Memphis Center
01:14PM 34.5536 -86.3831 329° Northwest 304 350 8,200 -1,740 Descending Memphis Center
01:15PM 34.6200 -86.4406 325° Northwest 291 335 6,500 -1,680 Descending Memphis Center
01:16PM 34.6819 -86.4906 326° Northwest 286 329 4,900 -1,200 Descending Memphis Center
01:17PM 34.7297 -86.5467 316° Northwest 266 306 4,200 -480 Descending Memphis Center
01:18PM 34.7672 -86.6131 305° West 248 285 4,000 -600 Descending Memphis Center
01:19PM 34.8022 -86.6697 307° West 231 266 3,000 -1,020 Descending Memphis Center